.
WxDataArchive / Data Records for 2015-02-17
2015-02-16 February 2015 2015-02-18

Data Records for Tuesday, 17 February 2015

Time	Temp	Chill	HIndex	Humid	Dewpt	 Wind 	HiWind	WindDir	Rain 	Barom
-----	----	-----	------	-----	-----	------	------	-------	-----	-----
00:00	1.3	1.3	1.3	69	-6.5	0	0	---	0.00	30.064 
00:05	1.3	1.3	1.3	70	-6.2	0	0	---	0.00	30.064 
00:10	1.1	1.1	1.1	70	-6.4	0	0	---	0.00	30.064 
00:15	0.9	0.9	0.9	70	-6.6	0	0	---	0.00	30.062 
00:20	0.7	0.7	0.7	70	-6.7	0	0	---	0.00	30.062 
00:25	0.5	0.5	0.5	70	-6.9	0	0	---	0.00	30.062 
00:30	0.5	0.5	0.5	71	-6.6	0	0	---	0.00	30.062 
00:35	0.3	0.3	0.3	71	-6.8	0	0	---	0.00	30.062 
00:40	0.3	0.3	0.3	71	-6.8	0	0	---	0.00	30.062 
00:45	0.3	0.3	0.3	72	-6.6	0	0	---	0.00	30.056 
00:50	0.1	0.1	0.1	72	-6.7	0	0	---	0.00	30.056 
00:55	0.1	0.1	0.1	72	-6.7	0	0	---	0.00	30.056 
01:00	0.0	0.0	0.0	72	-6.8	0	0	---	0.00	30.052 
01:05	0.0	0.0	0.0	73	-6.6	0	0	---	0.00	30.052 
01:10	-0.2	-0.2	-0.2	73	-6.8	0	0	---	0.00	30.052 
01:15	-0.2	-0.2	-0.2	73	-6.8	0	0	---	0.00	30.048 
01:20	-0.4	-0.4	-0.4	73	-6.9	0	0	---	0.00	30.048 
01:25	-0.6	-0.6	-0.6	73	-7.1	0	0	---	0.00	30.048 
01:30	-0.6	-0.6	-0.6	73	-7.1	0	0	---	0.00	30.047 
01:35	-0.6	-0.6	-0.6	74	-6.9	0	0	---	0.00	30.047 
01:40	-0.8	-0.8	-0.8	74	-7.1	0	0	---	0.00	30.047 
01:45	-0.8	-0.8	-0.8	74	-7.1	0	0	---	0.00	30.043 
01:50	-1.0	-1.0	-1.0	74	-7.3	0	0	---	0.00	30.043 
01:55	-1.0	-1.0	-1.0	74	-7.3	0	0	---	0.00	30.043 
02:00	-1.2	-1.2	-1.2	74	-7.4	0	0	---	0.00	30.039 
02:05	-1.2	-1.2	-1.2	74	-7.4	0	0	---	0.00	30.039 
02:10	-1.2	-1.2	-1.2	75	-7.2	0	0	---	0.00	30.039 
02:15	-1.2	-1.2	-1.2	75	-7.2	0	0	---	0.00	30.038 
02:20	-1.2	-1.2	-1.2	75	-7.2	0	0	---	0.00	30.038 
02:25	-1.2	-1.2	-1.2	75	-7.2	0	0	---	0.00	30.038 
02:30	-1.2	-1.2	-1.2	75	-7.2	0	0	---	0.00	30.041 
02:35	-1.2	-1.2	-1.2	75	-7.2	0	0	---	0.00	30.041 
02:40	-1.2	-1.2	-1.2	76	-6.9	0	0	---	0.00	30.041 
02:45	-1.2	-1.2	-1.2	76	-6.9	0	0	---	0.00	30.040 
02:50	-1.2	-1.2	-1.2	76	-6.9	0	0	---	0.00	30.040 
02:55	-1.2	-1.2	-1.2	76	-6.9	0	0	---	0.00	30.040 
03:00	-1.2	-1.2	-1.2	76	-6.9	0	0	---	0.00	30.035 
03:05	-1.4	-1.4	-1.4	76	-7.1	0	0	---	0.00	30.035 
03:10	-1.6	-1.6	-1.6	76	-7.3	0	0	---	0.00	30.035 
03:15	-1.6	-1.6	-1.6	76	-7.3	0	0	---	0.00	30.032 
03:20	-1.6	-1.6	-1.6	76	-7.3	0	0	---	0.00	30.032 
03:25	-1.6	-1.6	-1.6	76	-7.3	0	0	---	0.00	30.032 
03:30	-1.6	-1.6	-1.6	76	-7.3	0	0	---	0.00	30.020 
03:35	-1.8	-1.8	-1.8	76	-7.5	0	0	---	0.00	30.020 
03:40	-1.8	-1.8	-1.8	77	-7.2	0	0	---	0.00	30.020 
03:45	-1.8	-1.8	-1.8	76	-7.5	0	0	---	0.00	30.018 
03:50	-2.0	-2.0	-2.0	76	-7.7	0	0	---	0.00	30.018 
03:55	-2.0	-2.0	-2.0	77	-7.4	0	0	---	0.00	30.018 
04:00	-2.0	-2.0	-2.0	77	-7.4	0	0	---	0.00	30.017 
04:05	-2.0	-2.0	-2.0	77	-7.4	0	0	---	0.00	30.017 
04:10	-2.0	-2.0	-2.0	77	-7.4	0	0	---	0.00	30.017 
04:15	-2.0	-2.0	-2.0	77	-7.4	0	0	---	0.00	30.010 
04:20	-2.0	-2.0	-2.0	77	-7.4	0	0	---	0.00	30.010 
04:25	-2.0	-2.0	-2.0	77	-7.4	0	0	---	0.00	30.010 
04:30	-2.0	-2.0	-2.0	77	-7.4	0	0	---	0.00	30.010 
04:35	-2.0	-2.0	-2.0	77	-7.4	0	0	---	0.00	30.010 
04:40	-2.0	-2.0	-2.0	77	-7.4	0	0	---	0.00	30.010 
04:45	-1.8	-1.8	-1.8	77	-7.2	0	0	---	0.00	30.004 
04:50	-1.6	-1.6	-1.6	77	-7.0	0	0	---	0.00	30.004 
04:55	-1.4	-1.4	-1.4	78	-6.6	0	0	---	0.00	30.004 
05:00	-1.2	-1.2	-1.2	78	-6.4	0	0	---	0.00	30.001 
05:05	-1.0	-1.0	-1.0	78	-6.2	0	0	---	0.00	30.001 
05:10	-0.6	-0.6	-0.6	78	-5.8	0	0	---	0.00	30.001 
05:15	-0.2	-0.2	-0.2	79	-5.1	0	0	---	0.00	30.006 
05:20	0.0	0.0	0.0	79	-4.9	0	0	---	0.00	30.006 
05:25	0.3	0.3	0.3	79	-4.6	0	0	---	0.00	30.006 
05:30	0.7	0.7	0.7	79	-4.3	0	0	---	0.00	30.001 
05:35	1.1	1.1	1.1	80	-3.6	0	0	---	0.00	30.001 
05:40	1.5	1.5	1.5	80	-3.2	0	0	---	0.00	30.001 
05:45	1.8	1.8	1.8	79	-3.2	0	0	---	0.00	30.000 
05:50	2.2	2.2	2.2	79	-2.8	0	0	---	0.00	30.000 
05:55	2.4	2.4	2.4	79	-2.6	0	0	---	0.00	30.000 
06:00	2.8	2.8	2.8	79	-2.2	0	0	---	0.00	30.000 
06:05	3.0	3.0	3.0	79	-2.0	0	0	---	0.00	30.000 
06:10	3.2	3.2	3.2	79	-1.8	0	0	---	0.00	30.000 
06:15	3.4	3.4	3.4	79	-1.6	0	0	---	0.00	29.998 
06:20	3.5	3.5	3.5	79	-1.5	0	0	---	0.00	29.998 
06:25	3.9	3.9	3.9	79	-1.1	0	0	---	0.00	29.998 
06:30	4.3	4.3	4.3	79	-0.7	0	1	90	0.00	29.998 
06:35	4.7	4.7	4.7	79	-0.4	0	2	90	0.00	29.998 
06:40	5.0	5.0	5.0	78	-0.3	0	1	90	0.00	29.998 
06:45	5.4	5.4	5.4	78	0.1	0	1	90	0.00	30.002 
06:50	5.6	5.6	5.6	77	-0.0	0	1	90	0.00	30.002 
06:55	6.0	6.0	6.0	76	0.1	0	1	90	0.00	30.002 
07:00	6.1	6.1	6.1	75	-0.1	0	1	90	0.00	30.002 
07:05	6.3	6.3	6.3	74	-0.2	0	2	112	0.00	30.002 
07:10	6.5	6.5	6.5	73	-0.3	0	2	112	0.00	30.002 
07:15	6.7	6.7	6.7	73	-0.1	0	2	112	0.00	30.010 
07:20	6.9	6.9	6.9	72	-0.2	0	1	112	0.00	30.010 
07:25	7.0	7.0	7.0	72	-0.1	0	2	112	0.00	30.010 
07:30	7.0	7.0	7.0	71	-0.4	0	1	112	0.00	30.012 
07:35	7.2	7.2	7.2	70	-0.5	0	1	112	0.00	30.012 
07:40	7.4	7.4	7.4	70	-0.3	0	1	112	0.00	30.012 
07:45	7.6	7.6	7.6	70	-0.1	0	1	112	0.00	30.011 
07:50	7.7	7.7	7.7	69	-0.3	0	2	112	0.00	30.011 
07:55	7.7	7.7	7.7	69	-0.3	0	2	112	0.00	30.011 
08:00	7.9	7.9	7.9	69	-0.1	0	1	112	0.00	30.004 
08:05	8.1	8.1	8.1	69	0.1	0	1	112	0.00	30.004 
08:10	8.3	8.3	8.3	69	0.3	0	2	112	0.00	30.004 
08:15	8.4	8.4	8.4	68	0.0	0	2	112	0.00	30.009 
08:20	8.6	8.6	8.6	68	0.2	0	2	112	0.00	30.009 
08:25	8.8	8.8	8.8	68	0.4	0	2	112	0.00	30.009 
08:30	8.8	8.8	8.8	68	0.4	0	1	90	0.00	30.003 
08:35	9.2	9.2	9.2	68	0.8	0	1	90	0.00	30.003 
08:40	9.3	9.3	9.3	68	0.9	0	1	90	0.00	30.003 
08:45	9.5	9.5	9.5	67	0.8	0	2	90	0.00	29.997 
08:50	9.9	9.9	9.9	66	0.8	0	1	90	0.00	29.997 
08:55	10.0	10.0	10.0	66	0.9	0	2	90	0.00	29.997 
09:00	10.4	10.4	10.4	65	1.0	0	1	90	0.00	29.994 
09:05	10.7	10.7	10.7	65	1.3	0	2	90	0.00	29.994 
09:10	11.1	11.1	11.1	64	1.3	0	1	90	0.00	29.994 
09:15	11.2	11.2	11.2	64	1.4	0	2	90	0.00	29.998 
09:20	11.6	11.6	11.6	63	1.5	0	2	90	0.00	29.998 
09:25	11.7	11.7	11.7	62	1.2	1	3	90	0.00	29.998 
09:30	11.9	11.9	11.9	62	1.4	1	3	225	0.00	29.996 
09:35	12.1	12.1	12.1	62	1.6	0	2	225	0.00	29.996 
09:40	12.4	12.4	12.4	62	1.9	0	3	225	0.00	29.996 
09:45	12.8	12.8	12.8	61	1.9	1	3	225	0.00	30.002 
09:50	12.9	12.9	12.9	61	2.0	1	4	225	0.00	30.002 
09:55	12.9	12.9	12.9	61	2.0	1	5	248	0.00	30.002 
10:00	13.1	13.1	13.1	62	2.6	1	4	248	0.00	30.002 
10:05	13.3	13.3	13.3	62	2.7	1	3	248	0.00	30.002 
10:10	13.6	13.6	13.6	63	3.4	1	2	248	0.00	30.002 
10:15	14.0	14.0	14.0	62	3.4	0	2	248	0.00	29.999 
10:20	14.1	14.1	14.1	62	3.5	1	3	248	0.00	29.999 
10:25	14.4	14.4	14.4	62	3.8	1	3	248	0.00	29.999 
10:30	14.6	14.6	14.6	62	4.0	1	3	248	0.00	30.001 
10:35	14.9	14.9	14.9	63	4.6	1	4	248	0.00	30.001 
10:40	15.2	15.2	15.2	62	4.6	1	4	248	0.00	30.001 
10:45	15.6	15.6	15.6	62	4.9	1	3	248	0.00	29.997 
10:50	16.1	16.1	16.1	62	5.4	0	2	248	0.00	29.997 
10:55	16.4	16.4	16.4	62	5.7	1	4	248	0.00	29.997 
11:00	16.5	16.5	16.5	61	5.4	1	4	248	0.00	29.990 
11:05	16.7	16.7	16.7	61	5.6	1	4	248	0.00	29.990 
11:10	17.0	17.0	17.0	62	6.3	1	4	248	0.00	29.990 
11:15	17.2	17.2	17.2	62	6.4	1	3	248	0.00	29.991 
11:20	17.5	17.5	17.5	62	6.7	0	2	248	0.00	29.991 
11:25	17.7	17.7	17.7	62	6.9	1	3	248	0.00	29.991 
11:30	17.8	17.8	17.8	62	7.0	1	3	248	0.00	29.990 
11:35	18.0	18.0	18.0	61	6.9	0	3	248	0.00	29.990 
11:40	18.1	18.1	18.1	61	6.9	1	4	248	0.00	29.990 
11:45	18.3	18.3	18.3	62	7.5	1	4	270	0.00	29.989 
11:50	18.3	18.3	18.3	62	7.5	1	4	270	0.00	29.989 
11:55	18.4	18.4	18.4	62	7.6	1	4	270	0.00	29.989 
12:00	18.4	18.4	18.4	62	7.6	1	3	270	0.00	29.986 
12:05	18.6	18.6	18.6	62	7.8	1	3	270	0.00	29.986 
12:10	18.9	18.9	18.9	63	8.4	1	2	270	0.00	29.986 
12:15	19.2	19.2	19.2	62	8.3	1	2	270	0.00	29.974 
12:20	19.9	19.9	19.9	62	9.0	0	2	270	0.00	29.974 
12:25	20.3	20.3	20.3	62	9.4	1	3	270	0.00	29.974 
12:30	20.5	20.5	20.5	62	9.6	1	3	270	0.00	29.966 
12:35	20.8	20.8	20.8	62	9.9	1	3	270	0.00	29.966 
12:40	20.6	20.6	20.6	62	9.7	1	3	270	0.00	29.966 
12:45	20.5	20.5	20.5	63	9.9	2	4	270	0.00	29.958 
12:50	20.6	20.6	20.6	64	10.4	1	3	270	0.00	29.958 
12:55	21.0	21.0	21.0	64	10.8	1	2	270	0.00	29.958 
13:00	21.1	21.1	21.1	63	10.5	1	4	270	0.00	29.954 
13:05	21.1	21.1	21.1	63	10.5	2	4	270	0.00	29.954 
13:10	21.0	21.0	21.0	63	10.4	2	5	225	0.00	29.954 
13:15	21.0	21.0	21.0	64	10.8	2	4	225	0.00	29.944 
13:20	21.0	21.0	21.0	63	10.4	2	4	225	0.00	29.944 
13:25	20.8	20.8	20.8	64	10.6	1	4	225	0.00	29.944 
13:30	21.3	21.3	21.3	65	11.4	1	2	225	0.00	29.938 
13:35	21.4	21.4	21.4	64	11.1	1	3	225	0.00	29.938 
13:40	21.6	21.6	21.6	64	11.3	1	3	248	0.00	29.938 
13:45	21.8	21.8	21.8	64	11.5	1	3	248	0.00	29.934 
13:50	21.4	21.4	21.4	63	10.8	2	4	248	0.00	29.934 
13:55	21.3	21.3	21.3	64	11.0	1	3	248	0.00	29.934 
14:00	21.4	21.4	21.4	65	11.5	1	3	248	0.00	29.928 
14:05	21.4	21.4	21.4	64	11.1	2	5	248	0.00	29.928 
14:10	21.6	21.6	21.6	65	11.7	1	4	248	0.00	29.928 
14:15	21.8	21.8	21.8	64	11.5	1	6	248	0.00	29.924 
14:20	21.6	21.6	21.6	64	11.3	1	3	248	0.00	29.924 
14:25	21.8	21.8	21.8	65	11.9	1	3	248	0.00	29.924 
14:30	22.1	22.1	22.1	65	12.2	0	2	248	0.00	29.920 
14:35	22.2	22.2	22.2	64	11.9	1	4	248	0.00	29.920 
14:40	22.2	22.2	22.2	63	11.6	1	3	248	0.00	29.920 
14:45	22.4	22.4	22.4	63	11.7	1	5	248	0.00	29.913 
14:50	22.5	22.5	22.5	62	11.5	1	4	248	0.00	29.913 
14:55	22.2	22.2	22.2	63	11.6	1	4	248	0.00	29.913 
15:00	22.2	22.2	22.2	63	11.6	1	3	248	0.00	29.914 
15:05	22.2	22.2	22.2	64	11.9	1	3	248	0.00	29.914 
15:10	22.5	22.5	22.5	64	12.2	1	3	248	0.00	29.914 
15:15	22.5	22.5	22.5	64	12.2	0	2	248	0.00	29.912 
15:20	22.7	22.7	22.7	64	12.4	0	4	248	0.00	29.912 
15:25	22.5	22.5	22.5	64	12.2	1	3	248	0.00	29.912 
15:30	22.5	22.5	22.5	64	12.2	0	3	248	0.00	29.914 
15:35	22.9	22.9	22.9	65	12.9	0	1	248	0.00	29.914 
15:40	22.9	22.9	22.9	64	12.6	0	3	248	0.00	29.914 
15:45	23.0	23.0	23.0	63	12.3	0	3	248	0.00	29.911 
15:50	23.0	23.0	23.0	63	12.3	0	4	248	0.00	29.911 
15:55	23.0	23.0	23.0	63	12.3	0	3	248	0.00	29.911 
16:00	23.0	23.0	23.0	63	12.3	1	4	248	0.00	29.909 
16:05	22.7	22.7	22.7	63	12.0	1	3	248	0.00	29.909 
16:10	22.5	22.5	22.5	63	11.8	1	4	248	0.00	29.909 
16:15	22.4	22.4	22.4	64	12.1	1	4	248	0.00	29.909 
16:20	22.2	22.2	22.2	66	12.6	0	1	248	0.00	29.909 
16:25	22.4	22.4	22.4	67	13.1	0	2	248	0.00	29.909 
16:30	22.5	22.5	22.5	66	12.9	0	3	248	0.00	29.904 
16:35	22.5	22.5	22.5	66	12.9	1	3	248	0.00	29.904 
16:40	22.5	22.5	22.5	66	12.9	1	4	248	0.00	29.904 
16:45	22.4	22.4	22.4	67	13.1	1	3	248	0.00	29.902 
16:50	22.2	22.2	22.2	69	13.6	0	1	248	0.00	29.902 
16:55	22.2	22.2	22.2	71	14.3	0	2	248	0.00	29.902 
17:00	22.1	22.1	22.1	73	14.8	0	1	248	0.00	29.899 
17:05	21.9	21.9	21.9	74	14.9	0	0	---	0.00	29.899 
17:10	21.9	21.9	21.9	74	14.9	0	1	248	0.00	29.899 
17:15	21.8	21.8	21.8	75	15.1	0	2	248	0.00	29.891 
17:20	21.6	21.6	21.6	76	15.2	0	1	248	0.00	29.891 
17:25	21.4	21.4	21.4	77	15.3	0	1	248	0.00	29.891 
17:30	21.3	21.3	21.3	78	15.5	0	1	248	0.00	29.892 
17:35	21.1	21.1	21.1	79	15.6	0	1	248	0.00	29.892 
17:40	21.1	21.1	21.1	80	15.9	0	1	248	0.00	29.892 
17:45	21.1	21.1	21.1	81	16.2	0	3	248	0.00	29.892 
17:50	21.0	21.0	21.0	81	16.1	0	3	248	0.00	29.892 
17:55	21.0	21.0	21.0	81	16.1	0	3	248	0.00	29.892 
18:00	21.0	21.0	21.0	81	16.1	0	3	248	0.00	29.891 
18:05	21.0	21.0	21.0	80	15.8	1	3	248	0.00	29.891 
18:10	21.0	21.0	21.0	80	15.8	0	3	248	0.00	29.891 
18:15	21.0	21.0	21.0	80	15.8	0	3	248	0.00	29.893 
18:20	21.0	21.0	21.0	80	15.8	0	2	248	0.00	29.893 
18:25	20.8	20.8	20.8	79	15.3	1	3	248	0.00	29.893 
18:30	20.6	20.6	20.6	76	14.3	2	5	248	0.00	29.894 
18:35	20.5	20.5	20.5	75	13.9	1	5	248	0.00	29.894 
18:40	20.3	20.3	20.3	74	13.4	1	3	248	0.00	29.894 
18:45	20.2	20.2	20.2	74	13.3	1	3	248	0.00	29.898 
18:50	20.2	20.2	20.2	74	13.3	1	3	248	0.00	29.898 
18:55	20.0	20.0	20.0	74	13.1	1	4	248	0.00	29.898 
19:00	19.9	19.9	19.9	75	13.3	1	3	248	0.00	29.900 
19:05	19.9	19.9	19.9	76	13.6	1	3	248	0.00	29.900 
19:10	19.5	19.5	19.5	76	13.2	1	3	248	0.00	29.900 
19:15	19.4	19.4	19.4	75	12.8	1	4	248	0.00	29.907 
19:20	19.1	19.1	19.1	71	11.3	3	5	248	0.00	29.907 
19:25	18.6	18.6	18.6	68	9.8	1	3	270	0.00	29.907 
19:30	18.4	18.4	18.4	66	9.0	2	5	248	0.00	29.916 
19:35	18.3	18.3	18.3	64	8.2	2	5	248	0.00	29.916 
19:40	18.1	18.1	18.1	63	7.7	2	4	248	0.00	29.916 
19:45	18.1	18.1	18.1	63	7.7	1	4	248	0.00	29.917 
19:50	18.0	18.0	18.0	62	7.2	2	4	225	0.00	29.917 
19:55	18.0	18.0	18.0	62	7.2	1	3	248	0.00	29.917 
20:00	17.8	17.8	17.8	63	7.4	0	3	248	0.00	29.918 
20:05	17.7	17.7	17.7	63	7.3	1	2	248	0.00	29.918 
20:10	17.7	17.7	17.7	63	7.3	0	2	248	0.00	29.918 
20:15	17.5	17.5	17.5	63	7.1	0	3	248	0.00	29.915 
20:20	17.3	17.3	17.3	64	7.2	0	3	248	0.00	29.915 
20:25	17.0	17.0	17.0	64	7.0	0	2	248	0.00	29.915 
20:30	16.9	16.9	16.9	64	6.9	0	2	248	0.00	29.918 
20:35	16.7	16.7	16.7	64	6.7	1	3	248	0.00	29.918 
20:40	16.5	16.5	16.5	64	6.5	1	3	248	0.00	29.918 
20:45	16.4	16.4	16.4	64	6.4	0	2	248	0.00	29.920 
20:50	16.1	16.1	16.1	64	6.1	0	3	248	0.00	29.920 
20:55	16.1	16.1	16.1	64	6.1	0	2	248	0.00	29.920 
21:00	15.7	15.7	15.7	64	5.7	0	2	248	0.00	29.920 
21:05	15.6	15.6	15.6	64	5.6	0	3	248	0.00	29.920 
21:10	15.4	15.4	15.4	64	5.4	0	2	248	0.00	29.920 
21:15	15.4	15.4	15.4	64	5.4	0	2	248	0.00	29.917 
21:20	15.1	15.1	15.1	64	5.1	0	2	248	0.00	29.917 
21:25	14.9	14.9	14.9	64	5.0	0	2	248	0.00	29.917 
21:30	14.9	14.9	14.9	64	5.0	0	2	248	0.00	29.917 
21:35	14.8	14.8	14.8	64	4.9	0	2	248	0.00	29.917 
21:40	14.6	14.6	14.6	64	4.7	0	3	248	0.00	29.917 
21:45	14.4	14.4	14.4	64	4.5	1	3	248	0.00	29.922 
21:50	14.4	14.4	14.4	64	4.5	1	4	248	0.00	29.922 
21:55	14.4	14.4	14.4	64	4.5	1	4	248	0.00	29.922 
22:00	14.3	14.3	14.3	64	4.4	1	3	248	0.00	29.920 
22:05	14.1	14.1	14.1	62	3.5	1	4	248	0.00	29.920 
22:10	14.1	14.1	14.1	64	4.2	1	4	248	0.00	29.920 
22:15	14.0	14.0	14.0	64	4.1	1	3	248	0.00	29.924 
22:20	14.0	14.0	14.0	64	4.1	2	5	248	0.00	29.924 
22:25	13.8	13.8	13.8	65	4.2	1	4	248	0.00	29.924 
22:30	13.6	13.6	13.6	65	4.1	1	3	248	0.00	29.925 
22:35	13.5	13.5	13.5	65	4.0	1	3	248	0.00	29.925 
22:40	13.3	13.3	13.3	65	3.8	1	3	248	0.00	29.925 
22:45	13.1	13.1	13.1	65	3.6	0	2	248	0.00	29.927 
22:50	12.9	12.9	12.9	65	3.4	1	3	248	0.00	29.927 
22:55	12.8	12.8	12.8	66	3.6	0	2	248	0.00	29.927 
23:00	12.6	12.6	12.6	66	3.4	0	2	248	0.00	29.920 
23:05	12.4	12.4	12.4	66	3.2	0	3	248	0.00	29.920 
23:10	12.3	12.3	12.3	66	3.1	0	2	248	0.00	29.920 
23:15	12.3	12.3	12.3	67	3.5	0	2	248	0.00	29.919 
23:20	12.1	12.1	12.1	67	3.3	0	1	248	0.00	29.919 
23:25	12.1	12.1	12.1	67	3.3	0	2	248	0.00	29.919 
23:30	11.9	11.9	11.9	67	3.1	0	2	248	0.00	29.916 
23:35	11.9	11.9	11.9	68	3.4	0	2	248	0.00	29.916 
23:40	11.9	11.9	11.9	68	3.4	1	3	248	0.00	29.916 
23:45	11.7	11.7	11.7	68	3.2	0	2	248	0.00	29.914 
23:50	11.6	11.6	11.6	68	3.1	0	2	248	0.00	29.914 
23:55	11.4	11.4	11.4	68	2.9	0	2	248	0.00	29.914 

CoCoRaHS
IN-AL-39
A2 Web Hosting
Creative Commons License
GoDaddy
search engine by freefind advanced

loaded 2018-11-12 14:46:45 • last modified 2010-11-18 10:43:29
Privacy PolicyDisclaimer
• wx.awcolley.com is powered by PmWiki v.2002016 •
• all content (unless otherwise noted) © 2018 A W Colley